Time;durP1;ratioP1;P1;durP2;ratioP2;P2;SDS_P1;SDS_P2;PMS_P1;PMS_P2;Temp;Humidity;BMP_temperature;BMP_pressure;BME280_temperature;BME280_humidity;BME280_pressure;Samples;Min_cycle;Max_cycle;Signal;HPM_P1;HPM_P2
2022/09/03 00:02:17;;;;;;;66.00;2.60;;;19.40;1.00;;;;;;5080553;28;20419;-83
2022/09/03 00:05:10;;;;;;;65.77;2.77;;;19.40;1.00;;;;;;5063692;28;20402;-83
2022/09/03 00:07:41;;;;;;;66.70;3.27;;;19.50;1.00;;;;;;5062851;28;20463;-84
2022/09/03 00:10:12;;;;;;;66.17;3.20;;;19.50;1.00;;;;;;5081012;28;20387;-84
2022/09/03 00:12:42;;;;;;;66.77;2.80;;;19.40;1.00;;;;;;5082500;28;20870;-83
2022/09/03 00:15:17;;;;;;;67.07;3.90;;;19.20;1.00;;;;;;5064761;28;20897;-83
2022/09/03 00:17:54;;;;;;;65.50;3.10;;;19.10;1.00;;;;;;5080431;28;20431;-83
2022/09/03 00:20:29;;;;;;;66.07;3.23;;;19.10;1.00;;;;;;5080404;28;20433;-83
2022/09/03 00:23:00;;;;;;;69.90;4.37;;;19.20;1.00;;;;;;5080279;28;20404;-84
2022/09/03 00:26:07;;;;;;;66.23;3.27;;;19.20;1.00;;;;;;5080371;28;20423;-83
2022/09/03 00:29:02;;;;;;;66.13;3.47;;;19.10;1.00;;;;;;5018714;28;20468;-83
2022/09/03 00:31:46;;;;;;;66.90;3.63;;;19.10;1.00;;;;;;5017940;28;20474;-84
2022/09/03 00:34:20;;;;;;;67.67;4.47;;;19.00;1.00;;;;;;5050994;28;20431;-83
2022/09/03 00:36:46;;;;;;;65.97;3.57;;;19.00;1.00;;;;;;5062108;28;20940;-84
2022/09/03 00:39:15;;;;;;;68.57;4.50;;;19.00;1.00;;;;;;5062397;28;20443;-84
2022/09/03 00:42:11;;;;;;;67.93;4.40;;;19.00;1.00;;;;;;5080609;28;20901;-83
2022/09/03 00:45:18;;;;;;;69.80;3.87;;;19.00;1.00;;;;;;5080811;28;20485;-83
2022/09/03 00:48:19;;;;;;;66.43;4.23;;;18.90;1.00;;;;;;5079995;28;20856;-83
2022/09/03 00:51:10;;;;;;;66.80;4.20;;;18.90;1.00;;;;;;5080600;28;20404;-83
2022/09/03 00:53:56;;;;;;;67.03;3.97;;;18.80;1.00;;;;;;5079636;28;20488;-84
2022/09/03 00:56:58;;;;;;;67.47;4.20;;;18.80;1.00;;;;;;5061922;28;20414;-84
2022/09/03 00:59:51;;;;;;;66.77;4.27;;;18.80;1.00;;;;;;5053459;28;20449;-83
2022/09/03 01:02:28;;;;;;;67.37;4.80;;;18.60;1.00;;;;;;5080015;28;20472;-84
2022/09/03 01:05:26;;;;;;;66.77;4.87;;;18.60;1.00;;;;;;5062775;28;20473;-84
2022/09/03 01:07:54;;;;;;;69.60;4.70;;;18.50;1.00;;;;;;5079916;28;20418;-83
2022/09/03 01:10:26;;;;;;;66.70;4.70;;;18.50;1.00;;;;;;5061480;28;20414;-84
2022/09/03 01:13:07;;;;;;;66.77;4.17;;;18.50;1.00;;;;;;5079905;28;20406;-83
2022/09/03 01:16:13;;;;;;;67.67;4.87;;;18.40;1.00;;;;;;5079475;28;20870;-84
2022/09/03 01:18:42;;;;;;;66.73;4.67;;;18.40;1.00;;;;;;5063583;28;20458;-84
2022/09/03 01:21:17;;;;;;;66.70;4.73;;;18.50;1.00;;;;;;5062278;28;20418;-84
2022/09/03 01:24:13;;;;;;;69.53;4.70;;;18.50;1.00;;;;;;5080099;28;20420;-83
2022/09/03 01:27:02;;;;;;;67.07;4.17;;;18.40;1.00;;;;;;5080705;28;20450;-83
2022/09/03 01:29:38;;;;;;;68.47;5.30;;;18.40;1.00;;;;;;5081158;28;20801;-83
2022/09/03 01:32:14;;;;;;;66.53;3.93;;;18.30;1.00;;;;;;5062612;28;20410;-83
2022/09/03 01:35:18;;;;;;;67.13;5.10;;;18.40;1.00;;;;;;5062518;28;20452;-84
2022/09/03 01:38:36;;;;;;;66.97;4.40;;;18.30;1.00;;;;;;5063036;28;20438;-83
2022/09/03 01:44:22;;;;;;;66.50;4.17;;;18.30;1.00;;;;;;5082846;28;20461;-83
2022/09/03 01:46:55;;;;;;;66.73;5.00;;;18.30;1.00;;;;;;5066256;28;20438;-85
2022/09/03 01:49:36;;;;;;;72.20;5.17;;;18.40;1.00;;;;;;5081920;28;20525;-83
2022/09/03 01:52:12;;;;;;;67.27;4.57;;;18.30;1.00;;;;;;5063190;28;20414;-83
2022/09/03 01:54:57;;;;;;;66.97;4.67;;;18.30;1.00;;;;;;5081443;28;20881;-83
2022/09/03 01:57:41;;;;;;;67.40;5.00;;;18.20;1.00;;;;;;5080813;28;20410;-83
2022/09/03 02:00:12;;;;;;;66.97;4.13;;;18.10;1.00;;;;;;5080991;28;20379;-83
2022/09/03 02:02:40;;;;;;;69.47;4.80;;;18.20;1.00;;;;;;5081400;28;20387;-83
2022/09/03 02:05:13;;;;;;;66.47;4.57;;;18.20;1.00;;;;;;5063750;28;20403;-82
2022/09/03 02:07:48;;;;;;;67.30;5.57;;;18.10;1.00;;;;;;5062972;28;20779;-83
2022/09/03 02:10:18;;;;;;;68.37;4.77;;;18.00;1.00;;;;;;5063310;28;20937;-83
2022/09/03 02:13:18;;;;;;;66.37;5.00;;;18.00;1.00;;;;;;5081043;28;20406;-83
2022/09/03 02:15:47;;;;;;;67.40;5.20;;;18.00;1.00;;;;;;5072610;28;20419;-82
2022/09/03 02:18:17;;;;;;;67.20;4.87;;;18.00;1.00;;;;;;5080761;28;20781;-83
2022/09/03 02:20:46;;;;;;;65.53;5.27;;;18.00;1.00;;;;;;5081210;28;20409;-83
2022/09/03 02:23:13;;;;;;;68.60;5.93;;;17.90;1.00;;;;;;5081715;28;20410;-83
2022/09/03 02:25:43;;;;;;;67.53;6.00;;;17.80;1.00;;;;;;5081971;28;20905;-83
2022/09/03 02:28:10;;;;;;;66.93;6.00;;;17.90;1.00;;;;;;5081782;28;20445;-84
2022/09/03 02:30:35;;;;;;;71.80;5.77;;;17.80;1.00;;;;;;5082014;28;20808;-83
2022/09/03 02:33:02;;;;;;;67.60;4.93;;;17.90;1.00;;;;;;5079811;28;20394;-83
2022/09/03 02:35:28;;;;;;;68.90;5.40;;;17.90;1.00;;;;;;5078298;28;20643;-83
2022/09/03 02:37:53;;;;;;;67.07;5.47;;;17.90;1.00;;;;;;5078382;28;21006;-83
2022/09/03 02:40:19;;;;;;;66.57;4.87;;;17.90;1.00;;;;;;5061299;28;20399;-83
2022/09/03 02:42:46;;;;;;;66.60;5.20;;;17.90;1.00;;;;;;5080323;28;20640;-83
2022/09/03 02:45:28;;;;;;;69.13;5.20;;;17.90;1.00;;;;;;5079420;28;20224;-83
2022/09/03 02:47:59;;;;;;;66.87;5.40;;;17.80;1.00;;;;;;5079174;28;20418;-83
2022/09/03 02:50:25;;;;;;;67.70;5.60;;;17.90;1.00;;;;;;5078946;28;20886;-82
2022/09/03 02:52:51;;;;;;;66.93;5.47;;;17.90;1.00;;;;;;5061397;28;20407;-83
2022/09/03 02:55:18;;;;;;;67.30;5.57;;;17.80;1.00;;;;;;5079729;28;20490;-83
2022/09/03 02:57:44;;;;;;;70.60;6.00;;;17.80;1.00;;;;;;5062051;28;20418;-83
2022/09/03 03:00:11;;;;;;;67.50;5.73;;;17.70;1.00;;;;;;5079247;28;20399;-83
2022/09/03 03:02:37;;;;;;;66.10;5.03;;;17.70;1.00;;;;;;5079269;28;20403;-83
2022/09/03 03:05:04;;;;;;;67.60;5.90;;;17.70;1.00;;;;;;5079693;28;20399;-83
2022/09/03 03:07:33;;;;;;;66.20;5.00;;;17.70;1.00;;;;;;5061480;28;20233;-83
2022/09/03 03:09:58;;;;;;;69.47;4.50;;;17.70;1.00;;;;;;5079575;28;20442;-82
2022/09/03 03:12:24;;;;;;;66.20;4.83;;;17.70;1.00;;;;;;5080188;28;20438;-83
2022/09/03 03:14:50;;;;;;;70.10;5.60;;;17.70;1.00;;;;;;5061614;28;20168;-82
2022/09/03 03:17:15;;;;;;;66.20;4.07;;;17.60;1.00;;;;;;5061414;28;20184;-83
2022/09/03 03:19:41;;;;;;;66.00;4.30;;;17.70;1.00;;;;;;5081318;28;20207;-84
2022/09/03 03:22:07;;;;;;;66.50;4.93;;;17.80;1.00;;;;;;5080728;28;20176;-83
2022/09/03 03:24:32;;;;;;;66.10;4.30;;;17.70;1.00;;;;;;5081137;28;20163;-83
2022/09/03 03:26:58;;;;;;;65.80;4.10;;;17.70;1.00;;;;;;5062004;28;20194;-83
2022/09/03 03:29:24;;;;;;;66.30;4.50;;;17.80;1.00;;;;;;5060271;28;20200;-83
2022/09/03 03:31:51;;;;;;;66.10;4.00;;;17.80;1.00;;;;;;5078321;28;20179;-83
2022/09/03 03:34:16;;;;;;;66.37;3.93;;;17.90;1.00;;;;;;5059404;28;20208;-82
2022/09/03 03:36:42;;;;;;;66.40;4.53;;;17.80;1.00;;;;;;5060117;28;20504;-83
2022/09/03 03:39:08;;;;;;;69.17;4.40;;;17.60;1.00;;;;;;5077871;28;20161;-83
2022/09/03 03:41:35;;;;;;;66.90;4.40;;;17.70;1.00;;;;;;5060250;28;20170;-83
2022/09/03 03:44:03;;;;;;;67.17;4.53;;;17.70;1.00;;;;;;5077625;28;20501;-83
2022/09/03 03:46:32;;;;;;;67.80;5.23;;;17.90;1.00;;;;;;5077934;28;20787;-83
2022/09/03 03:48:59;;;;;;;66.13;3.50;;;18.00;1.00;;;;;;5078486;28;20434;-83
2022/09/03 03:51:25;;;;;;;65.57;3.67;;;18.00;1.00;;;;;;5078059;28;20832;-83
2022/09/03 03:53:54;;;;;;;65.97;4.10;;;18.10;1.00;;;;;;5079352;28;20478;-84
2022/09/03 03:56:20;;;;;;;68.33;4.30;;;18.20;1.00;;;;;;5062287;28;20503;-83
2022/09/03 03:58:47;;;;;;;65.87;4.03;;;18.00;1.00;;;;;;5079359;28;20402;-83
2022/09/03 04:01:14;;;;;;;65.50;4.00;;;17.90;1.00;;;;;;5078960;28;20454;-83
2022/09/03 04:03:40;;;;;;;69.43;4.17;;;17.90;1.00;;;;;;5062351;28;20406;-83
2022/09/03 04:06:07;;;;;;;65.80;4.07;;;17.90;1.00;;;;;;5080322;28;20428;-83
2022/09/03 04:08:35;;;;;;;67.40;3.90;;;17.80;1.00;;;;;;5061818;28;20488;-83
2022/09/03 04:11:02;;;;;;;66.37;4.00;;;17.90;1.00;;;;;;5079962;28;20474;-83
2022/09/03 04:13:38;;;;;;;65.80;4.27;;;17.80;1.00;;;;;;5061525;28;20502;-83
2022/09/03 04:16:09;;;;;;;66.10;4.70;;;17.80;1.00;;;;;;5079041;28;20413;-83
2022/09/03 04:18:36;;;;;;;70.70;4.00;;;17.70;1.00;;;;;;5060689;28;20461;-83
2022/09/03 04:21:07;;;;;;;69.10;4.10;;;17.80;1.00;;;;;;5078785;28;20452;-83
2022/09/03 04:23:35;;;;;;;66.07;4.17;;;17.80;1.00;;;;;;5077763;28;20474;-83
2022/09/03 04:26:01;;;;;;;67.93;3.70;;;17.80;1.00;;;;;;5077618;28;20403;-83
2022/09/03 04:28:27;;;;;;;68.97;4.07;;;17.70;1.00;;;;;;5059988;28;20850;-83
2022/09/03 04:30:53;;;;;;;67.30;4.50;;;17.60;1.00;;;;;;5077541;28;20406;-83
2022/09/03 04:33:20;;;;;;;65.90;3.40;;;17.60;1.00;;;;;;5079051;28;20406;-83
2022/09/03 04:35:45;;;;;;;67.30;3.83;;;17.60;1.00;;;;;;5132300;22;20494;-83
2022/09/03 04:38:11;;;;;;;66.47;4.03;;;17.50;1.00;;;;;;5082362;28;20421;-82
2022/09/03 04:40:37;;;;;;;65.83;4.20;;;17.50;1.00;;;;;;5064251;28;20188;-83
2022/09/03 04:43:03;;;;;;;65.77;3.50;;;17.50;1.00;;;;;;5082040;28;20394;-83
2022/09/03 04:45:29;;;;;;;66.97;3.90;;;17.40;1.00;;;;;;5081875;28;20160;-83
2022/09/03 04:48:00;;;;;;;66.37;4.00;;;17.50;1.00;;;;;;5081610;28;20429;-83
2022/09/03 04:50:29;;;;;;;66.40;3.67;;;17.60;1.00;;;;;;5080077;28;20413;-82
2022/09/03 04:52:58;;;;;;;68.20;3.90;;;17.70;1.00;;;;;;5061941;28;20410;-82
2022/09/03 04:55:24;;;;;;;65.60;3.47;;;17.70;1.00;;;;;;5083073;28;20466;-83
2022/09/03 04:57:50;;;;;;;66.13;3.53;;;17.50;1.00;;;;;;5080091;28;20468;-83
2022/09/03 05:00:17;;;;;;;66.30;3.50;;;17.60;1.00;;;;;;5079991;28;20501;-82
2022/09/03 05:02:47;;;;;;;66.37;3.83;;;17.50;1.00;;;;;;5064853;28;20410;-82
2022/09/03 05:05:14;;;;;;;65.80;4.03;;;17.40;1.00;;;;;;5079473;28;20856;-82
2022/09/03 05:07:40;;;;;;;65.17;3.30;;;17.40;1.00;;;;;;5062170;28;20490;-81
2022/09/03 05:10:08;;;;;;;65.80;4.40;;;17.50;1.00;;;;;;5061728;28;20485;-82
2022/09/03 05:12:34;;;;;;;66.50;4.20;;;17.50;1.00;;;;;;5081749;28;20751;-82
2022/09/03 05:15:00;;;;;;;66.20;3.90;;;17.40;1.00;;;;;;5084550;28;20390;-82
2022/09/03 05:17:26;;;;;;;67.23;4.13;;;17.50;1.00;;;;;;5083617;28;20414;-82
2022/09/03 05:19:52;;;;;;;67.83;3.87;;;17.50;1.00;;;;;;5086332;28;20410;-82
2022/09/03 05:22:20;;;;;;;66.47;4.50;;;17.50;1.00;;;;;;5068143;28;20417;-81
2022/09/03 05:24:49;;;;;;;66.20;3.87;;;17.40;1.00;;;;;;5066923;28;20329;-82
2022/09/03 05:27:18;;;;;;;67.27;4.30;;;17.40;1.00;;;;;;5065920;28;20479;-82
2022/09/03 05:29:44;;;;;;;65.90;4.13;;;17.40;1.00;;;;;;5086624;28;20458;-82
2022/09/03 05:32:11;;;;;;;67.07;4.27;;;17.40;1.00;;;;;;5087360;28;20403;-82
2022/09/03 05:34:37;;;;;;;67.73;4.70;;;17.40;1.00;;;;;;5083793;28;20541;-82
2022/09/03 05:37:02;;;;;;;66.37;4.33;;;17.40;1.00;;;;;;5084149;28;20430;-82
2022/09/03 05:39:28;;;;;;;67.27;3.93;;;17.50;1.00;;;;;;5068652;28;20164;-83
2022/09/03 05:41:54;;;;;;;66.90;4.90;;;17.40;1.00;;;;;;5086122;28;20524;-82
2022/09/03 05:44:22;;;;;;;70.63;4.33;;;17.50;1.00;;;;;;5085656;28;20179;-82
2022/09/03 05:46:50;;;;;;;67.10;4.57;;;17.60;1.00;;;;;;5066854;28;20563;-82
2022/09/03 05:49:16;;;;;;;67.00;5.20;;;17.60;1.00;;;;;;5082808;28;20453;-82
2022/09/03 05:51:42;;;;;;;66.67;4.80;;;17.50;1.00;;;;;;5082504;28;20406;-82
2022/09/03 05:54:09;;;;;;;66.60;5.10;;;17.50;1.00;;;;;;5064465;28;20470;-82
2022/09/03 05:56:36;;;;;;;66.27;4.70;;;17.40;1.00;;;;;;5064856;28;20426;-82
2022/09/03 05:59:06;;;;;;;70.27;5.60;;;17.50;1.00;;;;;;5082302;28;20404;-82
2022/09/03 06:01:34;;;;;;;66.50;5.20;;;17.50;1.00;;;;;;5083946;28;20441;-82
2022/09/03 06:04:05;;;;;;;66.37;4.53;;;17.60;1.00;;;;;;5068181;28;20464;-82
2022/09/03 06:06:33;;;;;;;65.80;5.37;;;17.70;1.00;;;;;;5086133;28;20413;-82
2022/09/03 06:09:04;;;;;;;67.60;5.10;;;17.60;1.00;;;;;;5085707;28;20442;-82
2022/09/03 06:11:31;;;;;;;70.13;5.63;;;17.60;1.00;;;;;;5087065;28;20388;-83
2022/09/03 06:14:06;;;;;;;66.00;4.37;;;17.60;1.00;;;;;;5090474;28;20398;-83
2022/09/03 06:16:35;;;;;;;66.07;4.60;;;17.60;1.00;;;;;;5072558;28;20952;-83
2022/09/03 06:19:02;;;;;;;68.23;5.07;;;17.70;1.00;;;;;;5088753;28;20406;-83
2022/09/03 06:21:28;;;;;;;66.20;4.83;;;17.70;1.00;;;;;;5065869;28;20410;-83
2022/09/03 06:23:56;;;;;;;66.20;4.27;;;17.80;1.00;;;;;;5083818;28;20460;-83
2022/09/03 06:26:23;;;;;;;65.67;3.93;;;17.80;1.00;;;;;;5088240;28;20438;-83
2022/09/03 06:28:48;;;;;;;65.90;4.33;;;17.90;1.00;;;;;;5068938;28;21003;-83
2022/09/03 06:31:17;;;;;;;65.20;3.60;;;18.00;1.00;;;;;;5070201;28;20406;-83
2022/09/03 06:33:43;;;;;;;65.73;4.07;;;18.20;1.00;;;;;;5070731;28;20183;-83
2022/09/03 06:36:14;;;;;;;66.30;3.87;;;18.20;1.00;;;;;;5086805;28;20422;-83
2022/09/03 06:38:41;;;;;;;68.83;4.40;;;18.30;1.00;;;;;;5069476;28;20415;-83
2022/09/03 06:41:10;;;;;;;66.90;3.83;;;18.30;1.00;;;;;;5069611;28;20418;-83
2022/09/03 06:43:38;;;;;;;65.70;3.47;;;18.40;1.00;;;;;;5070638;28;20414;-83
2022/09/03 06:46:10;;;;;;;65.67;3.40;;;18.40;1.00;;;;;;5070128;28;20410;-83
2022/09/03 06:48:36;;;;;;;65.90;3.40;;;18.50;1.00;;;;;;5088600;28;20446;-83
2022/09/03 06:51:10;;;;;;;69.30;4.00;;;18.70;1.00;;;;;;5088060;28;20486;-83
2022/09/03 06:53:38;;;;;;;65.47;3.60;;;18.60;1.00;;;;;;5089257;28;20750;-83
2022/09/03 06:56:26;;;;;;;67.83;3.60;;;18.70;1.00;;;;;;5089192;28;20398;-83
2022/09/03 06:58:56;;;;;;;72.00;3.93;;;18.70;1.00;;;;;;5088840;28;20391;-83
2022/09/03 07:01:29;;;;;;;65.63;3.33;;;18.70;1.00;;;;;;5090353;28;20399;-83
2022/09/03 07:03:57;;;;;;;65.27;3.20;;;18.80;1.00;;;;;;5090866;28;20382;-83
2022/09/03 07:06:26;;;;;;;65.70;3.50;;;18.80;1.00;;;;;;5072706;28;20489;-83
2022/09/03 07:08:52;;;;;;;65.77;3.50;;;18.80;1.00;;;;;;5090154;28;20442;-83
2022/09/03 07:11:22;;;;;;;65.60;3.23;;;18.80;1.00;;;;;;5090342;28;20394;-83
2022/09/03 07:13:50;;;;;;;65.07;3.00;;;18.90;1.00;;;;;;5089171;28;20388;-83
2022/09/03 07:16:21;;;;;;;66.57;4.50;;;19.00;1.00;;;;;;5088154;28;20451;-82
2022/09/03 07:18:48;;;;;;;64.90;3.00;;;19.20;1.00;;;;;;5070838;28;20462;-82
2022/09/03 07:21:19;;;;;;;66.40;3.03;;;19.30;1.00;;;;;;5071532;28;20424;-83
2022/09/03 07:23:46;;;;;;;65.47;2.70;;;19.30;1.00;;;;;;5070447;28;20412;-83
2022/09/03 07:26:20;;;;;;;66.47;3.33;;;19.30;1.00;;;;;;5068120;28;20415;-82
2022/09/03 07:28:47;;;;;;;64.80;2.67;;;19.40;1.00;;;;;;5086277;28;20421;-83
2022/09/03 07:31:24;;;;;;;66.97;3.00;;;19.60;1.00;;;;;;5069189;28;20413;-83
2022/09/03 07:33:54;;;;;;;65.47;3.03;;;19.70;1.00;;;;;;5086200;28;20437;-83
2022/09/03 07:36:20;;;;;;;64.77;2.53;;;19.80;1.00;;;;;;5068250;28;20444;-83
2022/09/03 07:38:46;;;;;;;67.87;3.03;;;19.80;1.00;;;;;;5067603;28;20411;-82
2022/09/03 07:41:14;;;;;;;65.50;3.30;;;19.90;1.00;;;;;;5087518;28;20490;-82
2022/09/03 07:43:47;;;;;;;68.77;2.70;;;20.10;1.00;;;;;;5068880;28;20460;-82
2022/09/03 07:46:22;;;;;;;64.37;2.43;;;20.10;1.00;;;;;;5067788;28;20466;-82
2022/09/03 07:49:01;;;;;;;65.30;2.53;;;20.30;1.00;;;;;;5084842;28;20500;-82
2022/09/03 07:51:29;;;;;;;65.50;2.97;;;20.50;1.00;;;;;;5084318;28;20381;-82
2022/09/03 07:54:00;;;;;;;66.27;3.23;;;20.60;1.00;;;;;;5084163;28;20399;-83
2022/09/03 07:56:38;;;;;;;69.03;3.83;;;20.60;1.00;;;;;;5121428;27;20573;-82
2022/09/03 07:59:04;;;;;;;66.37;3.93;;;20.60;1.00;;;;;;5125200;28;20421;-82
2022/09/03 08:01:31;;;;;;;64.77;3.60;;;20.60;1.00;;;;;;5124070;28;20401;-82
2022/09/03 08:03:57;;;;;;;68.57;3.43;;;20.50;1.00;;;;;;5123613;28;20388;-81
2022/09/03 08:06:25;;;;;;;65.00;3.17;;;20.50;1.00;;;;;;5120956;28;20395;-82
2022/09/03 08:08:57;;;;;;;68.03;3.60;;;20.50;1.00;;;;;;5123421;28;20437;-82
2022/09/03 08:11:23;;;;;;;64.80;2.83;;;20.60;1.00;;;;;;5120507;28;21014;-81
2022/09/03 08:14:04;;;;;;;65.47;2.80;;;20.60;1.00;;;;;;5121111;28;20378;-80
2022/09/03 08:16:35;;;;;;;66.70;2.90;;;20.40;1.00;;;;;;5120403;28;20388;-82
2022/09/03 08:19:01;;;;;;;64.63;2.60;;;20.30;1.00;;;;;;5120745;28;20440;-81
2022/09/03 08:21:26;;;;;;;64.50;2.70;;;20.20;1.00;;;;;;5119463;28;20417;-82
2022/09/03 08:24:01;;;;;;;66.57;2.80;;;20.20;1.00;;;;;;5121320;28;20393;-81
2022/09/03 08:26:29;;;;;;;65.07;2.60;;;20.10;1.00;;;;;;5118930;28;20393;-82
2022/09/03 08:28:54;;;;;;;67.20;2.60;;;20.10;1.00;;;;;;5122843;28;20385;-82
2022/09/03 08:31:22;;;;;;;66.60;2.67;;;20.20;1.00;;;;;;5121065;28;20419;-81
2022/09/03 08:33:52;;;;;;;66.00;3.00;;;20.20;1.00;;;;;;5117578;28;20240;-83
2022/09/03 08:36:21;;;;;;;66.47;2.90;;;20.10;1.00;;;;;;5123997;28;20440;-82
2022/09/03 08:38:48;;;;;;;65.67;2.80;;;20.10;1.00;;;;;;5125620;28;20397;-82
2022/09/03 08:41:23;;;;;;;64.87;2.70;;;20.00;1.00;;;;;;5125366;28;20397;-83
2022/09/03 08:44:05;;;;;;;65.07;3.00;;;20.00;1.00;;;;;;5124849;28;20393;-83
2022/09/03 08:46:36;;;;;;;66.43;3.10;;;20.10;1.00;;;;;;5124513;28;20396;-83
2022/09/03 08:49:04;;;;;;;64.93;2.80;;;20.10;1.00;;;;;;5124209;28;20387;-83
2022/09/03 08:51:32;;;;;;;65.20;2.87;;;20.00;1.00;;;;;;5123964;28;20398;-83
2022/09/03 08:53:59;;;;;;;65.33;2.90;;;20.00;1.00;;;;;;5123594;28;20465;-83
2022/09/03 08:56:30;;;;;;;64.47;2.80;;;20.00;1.00;;;;;;5123274;28;20453;-82
2022/09/03 08:58:59;;;;;;;67.40;3.97;;;20.10;1.00;;;;;;5123795;28;20399;-83
2022/09/03 09:01:57;;;;;;;68.17;3.30;;;20.10;1.00;;;;;;5123161;28;20468;-83
2022/09/03 09:04:59;;;;;;;65.70;4.20;;;20.20;1.00;;;;;;5123874;28;20410;-83
2022/09/03 09:07:55;;;;;;;66.27;3.73;;;19.90;1.00;;;;;;5113813;28;20418;-83
2022/09/03 09:10:35;;;;;;;65.97;3.77;;;19.90;1.00;;;;;;5102444;28;20930;-82
2022/09/03 09:13:24;;;;;;;66.20;3.37;;;20.10;1.00;;;;;;5106301;28;20398;-82
2022/09/03 09:16:07;;;;;;;65.47;3.60;;;20.10;1.00;;;;;;5107776;28;20444;-83
2022/09/03 09:19:10;;;;;;;65.67;3.80;;;19.90;1.00;;;;;;5106663;28;20459;-81
2022/09/03 09:22:02;;;;;;;66.53;3.67;;;19.90;1.00;;;;;;5101076;28;20421;-81
2022/09/03 09:24:46;;;;;;;66.83;3.80;;;19.90;1.00;;;;;;5099764;28;20463;-82
2022/09/03 09:27:16;;;;;;;66.87;3.93;;;20.00;1.00;;;;;;5104280;28;20417;-81
2022/09/03 09:29:45;;;;;;;67.00;4.90;;;20.00;1.00;;;;;;5104051;28;20429;-82
2022/09/03 09:32:13;;;;;;;68.47;4.67;;;19.90;1.00;;;;;;5103815;28;20761;-81
2022/09/03 09:34:40;;;;;;;66.30;5.37;;;19.90;1.00;;;;;;5103434;28;20437;-82
2022/09/03 09:37:10;;;;;;;66.97;6.40;;;20.00;1.00;;;;;;5103501;28;20421;-82
2022/09/03 09:39:36;;;;;;;67.90;5.90;;;20.10;1.00;;;;;;5104423;28;20400;-82
2022/09/03 09:42:10;;;;;;;66.87;5.67;;;20.20;1.00;;;;;;5103910;28;20428;-81
2022/09/03 09:44:38;;;;;;;66.90;4.80;;;20.50;1.00;;;;;;5104846;28;20386;-81
2022/09/03 09:47:19;;;;;;;65.40;3.90;;;20.80;1.00;;;;;;5105076;28;20460;-82
2022/09/03 09:49:48;;;;;;;66.07;3.90;;;21.10;1.00;;;;;;5102161;28;20419;-82
2022/09/03 09:52:15;;;;;;;65.17;3.50;;;21.10;1.00;;;;;;5104811;28;20416;-82
2022/09/03 09:54:45;;;;;;;66.50;3.80;;;21.20;1.00;;;;;;5102256;28;20479;-81
2022/09/03 09:57:22;;;;;;;67.30;3.43;;;21.30;1.00;;;;;;5104692;28;20422;-82
2022/09/03 09:59:49;;;;;;;67.27;4.10;;;21.30;1.00;;;;;;5106651;28;20382;-81
2022/09/03 10:02:25;;;;;;;65.60;3.33;;;21.10;1.00;;;;;;5103110;28;20393;-82
2022/09/03 10:04:51;;;;;;;65.33;3.37;;;21.20;1.00;;;;;;5103163;28;20408;-82
2022/09/03 10:07:23;;;;;;;66.60;3.60;;;21.40;1.00;;;;;;5101903;28;20413;-81
2022/09/03 10:10:19;;;;;;;66.50;3.37;;;21.60;1.00;;;;;;5100437;28;20807;-82
2022/09/03 10:12:57;;;;;;;68.67;4.23;;;21.70;1.00;;;;;;5100076;28;20386;-81
2022/09/03 10:15:38;;;;;;;67.67;2.90;;;21.90;1.00;;;;;;5099795;28;20428;-81
2022/09/03 10:18:39;;;;;;;69.13;3.50;;;22.20;1.00;;;;;;5100740;28;20440;-82
2022/09/03 10:21:16;;;;;;;68.27;3.50;;;22.40;1.00;;;;;;5101242;28;20418;-81
2022/09/03 10:24:03;;;;;;;66.17;3.33;;;22.70;1.00;;;;;;5099407;28;20446;-82
2022/09/03 10:26:30;;;;;;;68.10;3.70;;;22.80;1.00;;;;;;5101219;28;20382;-81
2022/09/03 10:29:01;;;;;;;66.70;3.73;;;22.80;1.00;;;;;;5100830;28;20393;-82
2022/09/03 10:31:39;;;;;;;67.67;3.73;;;22.60;1.00;;;;;;5101621;28;20393;-81
2022/09/03 10:36:58;;;;;;;67.63;3.00;;;22.90;1.00;;;;;;5068353;22;20501;-84
2022/09/03 10:39:47;;;;;;;67.27;3.57;;;22.90;1.00;;;;;;5009063;28;20413;-85
2022/09/03 10:42:40;;;;;;;67.10;3.70;;;22.90;1.00;;;;;;5006835;28;20422;-85
2022/09/03 10:45:27;;;;;;;68.40;3.80;;;23.20;1.00;;;;;;5005373;28;20436;-88
2022/09/03 10:48:05;;;;;;;67.43;3.30;;;23.60;1.00;;;;;;5004341;28;20437;-83
2022/09/03 10:51:15;;;;;;;65.50;3.43;;;23.70;1.00;;;;;;5005597;28;20397;-83
2022/09/03 10:54:09;;;;;;;66.50;3.70;;;23.80;1.00;;;;;;4912296;29;20417;-83
2022/09/03 10:56:49;;;;;;;68.40;3.70;;;24.20;1.00;;;;;;5005268;28;20438;-84
2022/09/03 10:59:33;;;;;;;66.60;4.13;;;24.30;1.00;;;;;;5006542;28;20419;-84
2022/09/03 11:02:20;;;;;;;66.03;3.77;;;24.40;1.00;;;;;;5010288;28;20394;-85
2022/09/03 11:04:53;;;;;;;66.60;3.40;;;24.30;1.00;;;;;;5005499;28;20401;-83
2022/09/03 11:07:24;;;;;;;67.07;3.50;;;24.40;1.00;;;;;;5003242;28;20866;-83
2022/09/03 11:10:11;;;;;;;66.47;3.33;;;24.80;1.00;;;;;;5002330;28;20405;-85
2022/09/03 11:12:44;;;;;;;66.00;3.27;;;25.00;1.00;;;;;;5005205;28;20427;-85
2022/09/03 11:15:32;;;;;;;68.60;2.93;;;24.70;1.00;;;;;;5004942;28;20439;-85
2022/09/03 11:18:14;;;;;;;65.60;2.90;;;25.00;1.00;;;;;;5004364;28;20464;-84
2022/09/03 11:20:41;;;;;;;66.70;3.30;;;25.20;1.00;;;;;;5002246;28;20485;-84
2022/09/03 11:23:12;;;;;;;66.30;2.70;;;25.20;1.00;;;;;;5002547;28;20403;-83
2022/09/03 11:26:02;;;;;;;66.90;2.90;;;25.10;1.00;;;;;;5002312;28;20409;-84
2022/09/03 11:28:41;;;;;;;65.40;3.00;;;24.90;1.00;;;;;;5002161;28;20435;-84
2022/09/03 11:31:22;;;;;;;67.10;3.30;;;24.70;1.00;;;;;;5001981;28;20527;-84
2022/09/03 11:33:57;;;;;;;68.47;3.10;;;24.60;1.00;;;;;;5000090;28;20431;-84
2022/09/03 11:36:37;;;;;;;65.70;2.83;;;24.60;1.00;;;;;;5000318;28;20829;-84
2022/09/03 11:39:33;;;;;;;67.50;2.90;;;24.70;1.00;;;;;;5000290;28;20439;-84
2022/09/03 11:42:07;;;;;;;68.30;3.30;;;24.80;1.00;;;;;;5001645;28;20401;-84
2022/09/03 11:44:38;;;;;;;65.70;3.07;;;24.60;1.00;;;;;;5000058;28;20407;-84
2022/09/03 11:47:18;;;;;;;66.80;3.13;;;24.80;1.00;;;;;;5002107;28;20428;-84
2022/09/03 11:50:06;;;;;;;67.90;2.83;;;25.10;1.00;;;;;;4999668;28;20407;-84
2022/09/03 11:52:32;;;;;;;71.07;4.10;;;25.60;1.00;;;;;;5001062;28;20416;-84
2022/09/03 11:54:58;;;;;;;67.50;4.53;;;25.70;1.00;;;;;;5001261;28;20448;-84
2022/09/03 11:57:29;;;;;;;66.20;3.73;;;25.80;1.00;;;;;;5000100;28;20192;-84
2022/09/03 12:00:14;;;;;;;66.00;3.40;;;25.50;1.00;;;;;;4998948;28;20185;-84
2022/09/03 12:02:47;;;;;;;66.20;4.10;;;25.50;1.00;;;;;;4999528;28;20406;-84
2022/09/03 12:05:15;;;;;;;66.87;3.73;;;25.20;1.00;;;;;;5000872;28;20817;-83
2022/09/03 12:08:01;;;;;;;67.17;3.27;;;25.00;1.00;;;;;;5001429;28;20443;-84
2022/09/03 12:10:37;;;;;;;66.70;4.00;;;25.30;1.00;;;;;;4998990;28;20769;-83
2022/09/03 12:13:14;;;;;;;65.87;3.93;;;26.10;1.00;;;;;;5000743;28;20394;-84
2022/09/03 12:15:49;;;;;;;65.90;3.77;;;26.40;1.00;;;;;;4999976;28;21028;-83
2022/09/03 12:18:32;;;;;;;67.27;4.30;;;26.70;1.00;;;;;;5000127;28;20414;-84
2022/09/03 12:20:59;;;;;;;66.80;4.40;;;26.70;1.00;;;;;;4999804;28;20402;-84
2022/09/03 12:23:49;;;;;;;66.97;4.73;;;26.70;1.00;;;;;;4999870;28;20398;-84
2022/09/03 12:26:24;;;;;;;66.90;4.57;;;27.20;1.00;;;;;;5000885;28;20389;-83
2022/09/03 12:28:59;;;;;;;71.00;4.63;;;27.20;1.00;;;;;;4998933;28;20405;-84
2022/09/03 12:31:42;;;;;;;66.60;4.50;;;27.20;1.00;;;;;;5000704;28;20409;-84
2022/09/03 12:34:11;;;;;;;68.37;5.27;;;26.70;1.00;;;;;;5004927;28;20416;-82
2022/09/03 12:36:40;;;;;;;67.20;5.67;;;26.70;1.00;;;;;;5003032;28;20450;-83
2022/09/03 12:39:12;;;;;;;68.93;5.17;;;26.60;1.00;;;;;;4998959;28;20412;-83
2022/09/03 12:41:38;;;;;;;68.20;4.80;;;26.80;1.00;;;;;;4997541;28;20412;-83
2022/09/03 12:44:04;;;;;;;67.60;5.10;;;26.80;1.00;;;;;;4999647;28;20406;-84
2022/09/03 12:46:32;;;;;;;66.67;4.77;;;26.90;1.00;;;;;;5000129;28;20402;-85
2022/09/03 12:49:06;;;;;;;66.90;4.90;;;26.70;1.00;;;;;;5000468;28;20429;-84
2022/09/03 12:51:42;;;;;;;66.47;5.47;;;26.50;1.00;;;;;;4999937;28;20425;-84
2022/09/03 12:54:15;;;;;;;66.87;4.90;;;26.50;1.00;;;;;;4999496;28;20413;-84
2022/09/03 12:57:02;;;;;;;67.37;5.40;;;26.40;1.00;;;;;;5001920;28;20469;-84
2022/09/03 12:59:32;;;;;;;67.70;5.63;;;26.70;1.00;;;;;;5003299;28;20469;-85
2022/09/03 13:02:04;;;;;;;67.77;4.93;;;26.50;1.00;;;;;;5004608;28;20410;-85
2022/09/03 13:04:35;;;;;;;68.67;5.10;;;26.60;1.00;;;;;;5002489;28;20414;-85
2022/09/03 13:07:22;;;;;;;67.50;5.50;;;26.60;1.00;;;;;;5003553;28;20418;-85
2022/09/03 13:09:48;;;;;;;66.90;5.10;;;26.90;1.00;;;;;;5001727;28;20456;-85
2022/09/03 13:12:28;;;;;;;66.90;5.03;;;26.80;1.00;;;;;;5004806;28;20391;-84
2022/09/03 13:14:53;;;;;;;66.07;5.10;;;27.00;1.00;;;;;;5002386;28;20445;-85
2022/09/03 13:17:31;;;;;;;67.10;5.27;;;26.90;1.00;;;;;;5002967;28;20480;-84
2022/09/03 13:20:18;;;;;;;66.50;4.27;;;26.90;1.00;;;;;;5004365;28;20595;-85
2022/09/03 13:23:14;;;;;;;66.40;4.20;;;27.30;1.00;;;;;;5002552;28;20409;-84
2022/09/03 13:26:10;;;;;;;66.23;4.10;;;27.00;1.00;;;;;;5004509;28;20885;-84
2022/09/03 13:28:38;;;;;;;68.50;4.70;;;27.10;1.00;;;;;;5002036;28;20475;-84